Time;durP1;ratioP1;P1;durP2;ratioP2;P2;SDS_P1;SDS_P2;PMS_P1;PMS_P2;Temp;Humidity;BMP_temperature;BMP_pressure;BME280_temperature;BME280_humidity;BME280_pressure;Samples;Min_cycle;Max_cycle;Signal;HPM_P1;HPM_P2
2021/09/26 00:01:35;;;;;;;19.85;16.75;;;17.40;79.80;;;;;;5009192;28;20038;-78
2021/09/26 00:04:00;;;;;;;19.80;16.17;;;17.40;79.80;;;;;;5011697;28;20015;-77
2021/09/26 00:06:26;;;;;;;18.35;16.23;;;17.40;79.90;;;;;;5008179;28;20500;-76
2021/09/26 00:08:52;;;;;;;17.90;16.00;;;17.40;79.90;;;;;;5009147;28;20043;-77
2021/09/26 00:11:17;;;;;;;19.35;17.23;;;17.30;79.90;;;;;;5009939;28;20038;-76
2021/09/26 00:13:44;;;;;;;18.67;15.95;;;17.30;80.00;;;;;;5010356;28;20019;-76
2021/09/26 00:16:11;;;;;;;18.83;16.83;;;17.30;80.10;;;;;;5007426;28;20046;-77
2021/09/26 00:18:37;;;;;;;18.55;16.55;;;17.30;80.20;;;;;;5003529;28;20039;-77
2021/09/26 00:21:03;;;;;;;18.17;16.00;;;17.30;80.20;;;;;;5007205;28;20030;-76
2021/09/26 00:23:32;;;;;;;17.48;15.20;;;17.30;80.30;;;;;;5007199;28;20031;-75
2021/09/26 00:25:58;;;;;;;20.20;16.80;;;17.30;80.40;;;;;;5010087;28;20050;-77
2021/09/26 00:28:24;;;;;;;20.48;17.00;;;17.30;80.50;;;;;;5002398;28;20031;-76
2021/09/26 00:30:50;;;;;;;19.35;16.40;;;17.40;80.50;;;;;;5004930;28;20030;-75
2021/09/26 00:33:16;;;;;;;19.15;17.08;;;17.30;80.60;;;;;;5003128;28;20207;-76
2021/09/26 00:35:42;;;;;;;19.92;16.60;;;17.30;80.60;;;;;;5008663;28;20089;-77
2021/09/26 00:38:08;;;;;;;19.58;17.42;;;17.30;80.70;;;;;;5011041;28;20083;-76
2021/09/26 00:40:35;;;;;;;19.15;16.80;;;17.40;80.70;;;;;;5007224;28;20076;-77
2021/09/26 00:43:00;;;;;;;21.15;18.52;;;17.30;80.80;;;;;;5011917;28;20042;-76
2021/09/26 00:45:26;;;;;;;19.15;17.10;;;17.40;80.90;;;;;;5020363;28;21075;-77
2021/09/26 00:47:52;;;;;;;20.25;17.33;;;17.30;80.90;;;;;;5027566;28;20033;-75
2021/09/26 00:50:18;;;;;;;20.13;17.48;;;17.30;80.90;;;;;;5027918;28;20085;-74
2021/09/26 00:52:46;;;;;;;22.95;19.23;;;17.30;81.00;;;;;;5027935;28;20030;-78
2021/09/26 00:55:13;;;;;;;19.05;16.88;;;17.30;81.10;;;;;;5029200;28;20057;-74
2021/09/26 00:57:42;;;;;;;20.42;17.73;;;17.20;81.20;;;;;;5028267;28;20037;-77
2021/09/26 01:00:11;;;;;;;20.08;17.95;;;17.30;81.30;;;;;;5031458;28;20042;-77
2021/09/26 01:02:37;;;;;;;19.95;17.02;;;17.30;81.20;;;;;;5034404;28;20090;-76
2021/09/26 01:05:04;;;;;;;21.48;18.17;;;17.30;81.20;;;;;;5029930;28;20053;-76
2021/09/26 01:07:39;;;;;;;20.77;17.33;;;17.30;81.20;;;;;;5031372;28;20038;-77
2021/09/26 01:10:31;;;;;;;20.98;18.17;;;17.30;81.20;;;;;;5031680;28;20034;-76
2021/09/26 01:13:16;;;;;;;20.75;18.55;;;17.30;81.20;;;;;;5033836;28;20338;-76
2021/09/26 01:16:03;;;;;;;21.80;18.88;;;17.30;81.30;;;;;;5035498;28;20065;-77
2021/09/26 01:18:49;;;;;;;20.83;18.42;;;17.40;81.10;;;;;;5032733;28;20074;-76
2021/09/26 01:21:31;;;;;;;20.88;18.67;;;17.30;81.10;;;;;;5024353;28;20034;-78
2021/09/26 01:24:46;;;;;;;20.20;18.10;;;17.30;81.10;;;;;;5036887;28;20034;-75
2021/09/26 01:27:21;;;;;;;22.15;19.15;;;17.30;81.00;;;;;;5027414;28;20058;-73
2021/09/26 01:30:17;;;;;;;22.08;19.35;;;17.30;81.00;;;;;;5031094;28;20057;-73
2021/09/26 01:33:03;;;;;;;20.98;18.75;;;17.30;81.30;;;;;;5027736;28;20018;-76
2021/09/26 01:35:30;;;;;;;20.98;18.67;;;17.20;81.30;;;;;;5034171;28;20034;-75
2021/09/26 01:38:08;;;;;;;19.58;17.55;;;17.20;81.50;;;;;;5033334;28;20042;-76
2021/09/26 01:40:52;;;;;;;19.35;17.30;;;17.20;81.60;;;;;;5025035;28;20014;-76
2021/09/26 01:43:24;;;;;;;20.70;17.80;;;17.20;81.80;;;;;;5031053;28;20018;-75
2021/09/26 01:45:52;;;;;;;22.92;19.08;;;17.20;82.00;;;;;;5036096;28;20042;-76
2021/09/26 01:48:22;;;;;;;22.63;18.60;;;17.10;82.30;;;;;;5041223;28;20034;-75
2021/09/26 01:50:51;;;;;;;21.25;18.98;;;17.10;82.30;;;;;;5037703;28;20086;-76
2021/09/26 01:53:20;;;;;;;23.25;19.98;;;17.10;82.60;;;;;;5033762;28;20052;-78
2021/09/26 01:55:50;;;;;;;21.90;19.60;;;17.10;82.70;;;;;;5030626;28;20053;-77
2021/09/26 01:58:17;;;;;;;24.13;20.63;;;17.10;82.80;;;;;;5032431;28;20048;-76
2021/09/26 02:00:43;;;;;;;23.20;19.60;;;17.10;82.90;;;;;;5034318;28;20046;-77
2021/09/26 02:03:10;;;;;;;26.52;23.63;;;17.10;83.00;;;;;;5033907;28;20034;-73
2021/09/26 02:05:41;;;;;;;23.08;20.65;;;17.10;83.00;;;;;;5024808;28;20018;-77
2021/09/26 02:08:07;;;;;;;27.08;20.23;;;17.10;83.10;;;;;;5032510;28;20037;-76
2021/09/26 02:10:35;;;;;;;22.83;20.42;;;17.10;83.20;;;;;;5028297;28;20054;-74
2021/09/26 02:13:01;;;;;;;25.73;20.65;;;17.10;83.10;;;;;;5027287;28;20092;-73
2021/09/26 02:15:28;;;;;;;24.08;21.58;;;17.10;83.20;;;;;;5035637;28;20046;-78
2021/09/26 02:17:54;;;;;;;23.38;20.88;;;17.10;83.10;;;;;;5026161;28;20036;-76
2021/09/26 02:20:21;;;;;;;21.25;19.02;;;17.10;83.10;;;;;;5029323;28;20096;-78
2021/09/26 02:22:49;;;;;;;20.83;18.73;;;17.10;83.10;;;;;;5033033;28;20018;-77
2021/09/26 02:25:18;;;;;;;21.48;19.00;;;17.10;83.10;;;;;;5029360;28;20042;-73
2021/09/26 02:27:44;;;;;;;20.70;18.50;;;17.10;83.00;;;;;;5035067;28;20597;-76
2021/09/26 02:30:12;;;;;;;21.50;18.90;;;17.10;83.00;;;;;;5031839;28;20053;-74
2021/09/26 02:32:38;;;;;;;19.75;17.55;;;17.10;83.00;;;;;;5036214;28;20110;-78
2021/09/26 02:35:06;;;;;;;24.20;19.23;;;17.20;83.00;;;;;;5030569;28;20050;-78
2021/09/26 02:37:32;;;;;;;20.40;18.20;;;17.10;83.00;;;;;;5037493;28;20045;-73
2021/09/26 02:39:59;;;;;;;20.90;18.10;;;17.20;83.00;;;;;;5024353;28;20053;-75
2021/09/26 02:42:40;;;;;;;22.23;18.85;;;17.20;83.00;;;;;;5023944;28;20025;-77
2021/09/26 02:45:09;;;;;;;22.00;18.98;;;17.10;83.00;;;;;;5026608;28;20053;-77
2021/09/26 02:47:57;;;;;;;21.27;18.75;;;17.20;83.00;;;;;;5018033;28;20023;-77
2021/09/26 02:50:25;;;;;;;20.55;18.02;;;17.20;82.90;;;;;;5008052;28;20038;-74
2021/09/26 02:52:52;;;;;;;21.65;19.35;;;17.20;82.80;;;;;;5010182;28;20035;-76
2021/09/26 02:55:18;;;;;;;23.15;19.10;;;17.20;82.80;;;;;;5009794;28;20054;-76
2021/09/26 02:57:45;;;;;;;23.15;19.23;;;17.20;82.70;;;;;;5008268;28;20026;-73
2021/09/26 03:00:12;;;;;;;24.17;19.13;;;17.20;82.70;;;;;;5009105;28;20045;-74
2021/09/26 03:02:38;;;;;;;21.23;18.95;;;17.20;82.70;;;;;;5008703;28;20065;-76
2021/09/26 03:05:06;;;;;;;21.70;19.23;;;17.20;82.70;;;;;;5008837;28;20018;-78
2021/09/26 03:07:32;;;;;;;22.73;18.88;;;17.20;82.80;;;;;;5009524;28;20045;-75
2021/09/26 03:09:58;;;;;;;21.45;18.67;;;17.20;82.50;;;;;;5008293;28;20039;-76
2021/09/26 03:12:24;;;;;;;20.38;17.73;;;17.20;82.60;;;;;;5005421;28;20089;-76
2021/09/26 03:14:51;;;;;;;19.63;17.52;;;17.20;82.70;;;;;;5006329;28;20038;-76
2021/09/26 03:17:17;;;;;;;21.15;17.77;;;17.10;82.80;;;;;;5003947;28;20042;-76
2021/09/26 03:19:43;;;;;;;19.65;17.55;;;17.10;82.80;;;;;;5006943;28;20310;-75
2021/09/26 03:22:09;;;;;;;20.92;18.70;;;17.10;82.90;;;;;;5007341;28;20054;-77
2021/09/26 03:24:36;;;;;;;19.58;17.42;;;17.10;82.90;;;;;;5007167;28;20089;-77
2021/09/26 03:27:03;;;;;;;20.60;18.38;;;17.10;82.80;;;;;;5009262;28;20042;-71
2021/09/26 03:29:32;;;;;;;21.52;18.15;;;17.10;82.80;;;;;;5003885;28;20030;-75
2021/09/26 03:31:59;;;;;;;20.77;18.35;;;17.10;82.70;;;;;;5006454;28;20058;-76
2021/09/26 03:34:24;;;;;;;20.88;18.67;;;17.10;82.70;;;;;;5007334;28;20034;-76
2021/09/26 03:36:50;;;;;;;23.70;20.15;;;17.10;82.60;;;;;;5011173;28;20131;-76
2021/09/26 03:39:16;;;;;;;22.65;19.38;;;17.10;82.40;;;;;;5009752;28;20054;-74
2021/09/26 03:41:41;;;;;;;21.60;18.17;;;17.20;82.30;;;;;;5002456;28;20888;-75
2021/09/26 03:44:07;;;;;;;22.80;20.40;;;17.20;82.30;;;;;;5007369;28;20015;-79
2021/09/26 03:46:33;;;;;;;20.20;18.00;;;17.20;82.30;;;;;;5005613;28;20089;-77
2021/09/26 03:48:58;;;;;;;22.10;19.73;;;17.20;82.30;;;;;;5009368;28;20014;-76
2021/09/26 03:51:24;;;;;;;22.77;20.23;;;17.20;82.20;;;;;;5006774;28;20057;-76
2021/09/26 03:53:50;;;;;;;23.20;20.70;;;17.20;82.20;;;;;;5010084;28;20034;-76
2021/09/26 03:56:15;;;;;;;23.27;19.58;;;17.20;82.20;;;;;;5006359;28;20051;-76
2021/09/26 03:58:41;;;;;;;24.52;21.85;;;17.20;82.10;;;;;;5007824;28;20034;-76
2021/09/26 04:01:07;;;;;;;24.38;21.83;;;17.20;82.10;;;;;;5005989;28;20019;-78
2021/09/26 04:03:32;;;;;;;23.92;21.35;;;17.20;82.10;;;;;;5008688;28;20033;-78
2021/09/26 04:05:58;;;;;;;26.90;21.13;;;17.20;82.10;;;;;;5004904;28;20081;-77
2021/09/26 04:08:24;;;;;;;25.90;23.10;;;17.20;82.10;;;;;;5008990;28;20019;-77
2021/09/26 04:10:49;;;;;;;25.33;21.80;;;17.20;82.10;;;;;;5010245;28;20061;-78
2021/09/26 04:13:15;;;;;;;24.98;21.90;;;17.20;82.20;;;;;;5005981;28;20057;-77
2021/09/26 04:15:41;;;;;;;22.70;20.10;;;17.20;82.20;;;;;;5007857;28;20053;-76
2021/09/26 04:18:07;;;;;;;28.27;21.67;;;17.20;82.20;;;;;;5006180;28;20026;-74
2021/09/26 04:20:32;;;;;;;24.42;20.73;;;17.20;82.20;;;;;;5006688;28;20027;-77
2021/09/26 04:22:58;;;;;;;25.70;22.00;;;17.10;82.20;;;;;;5006258;28;20061;-77
2021/09/26 04:25:24;;;;;;;25.55;21.75;;;17.10;82.30;;;;;;5010055;28;20039;-76
2021/09/26 04:27:56;;;;;;;24.10;20.80;;;17.10;82.30;;;;;;5003428;28;20035;-75
2021/09/26 04:30:22;;;;;;;23.00;20.40;;;17.10;82.40;;;;;;5005326;28;20015;-77
2021/09/26 04:32:48;;;;;;;25.27;20.75;;;17.00;82.50;;;;;;5006746;28;20010;-78
2021/09/26 04:35:13;;;;;;;23.77;20.50;;;16.90;82.70;;;;;;5011747;28;20044;-73
2021/09/26 04:37:40;;;;;;;25.40;21.80;;;16.90;82.80;;;;;;5011513;28;20341;-78
2021/09/26 04:40:06;;;;;;;27.55;23.02;;;16.80;82.90;;;;;;5008737;28;20061;-75
2021/09/26 04:42:32;;;;;;;28.55;24.52;;;16.80;83.20;;;;;;5012463;28;20042;-76
2021/09/26 04:44:58;;;;;;;26.25;22.55;;;16.70;83.30;;;;;;5011416;28;20034;-75
2021/09/26 04:47:23;;;;;;;27.63;22.88;;;16.70;83.50;;;;;;5010793;28;20065;-76
2021/09/26 04:49:49;;;;;;;26.15;22.23;;;16.60;83.70;;;;;;5011750;28;20034;-77
2021/09/26 04:52:15;;;;;;;26.65;23.40;;;16.60;83.90;;;;;;5009749;28;20042;-76
2021/09/26 04:54:40;;;;;;;26.70;21.05;;;16.50;84.00;;;;;;5011396;28;20041;-75
2021/09/26 04:57:06;;;;;;;25.80;22.88;;;16.50;84.10;;;;;;5008899;28;20057;-74
2021/09/26 04:59:32;;;;;;;28.88;25.73;;;16.40;84.20;;;;;;5008904;28;20045;-76
2021/09/26 05:01:58;;;;;;;28.83;25.40;;;16.40;84.50;;;;;;5008293;28;20098;-77
2021/09/26 05:04:23;;;;;;;27.77;24.52;;;16.40;84.60;;;;;;5008954;28;20043;-77
2021/09/26 05:06:49;;;;;;;28.15;24.73;;;16.40;84.70;;;;;;5012445;28;20364;-74
2021/09/26 05:09:14;;;;;;;29.33;25.55;;;16.40;84.80;;;;;;5008983;28;20046;-76
2021/09/26 05:11:40;;;;;;;30.00;25.15;;;16.30;84.90;;;;;;5007249;28;20058;-74
2021/09/26 05:14:06;;;;;;;27.75;24.38;;;16.40;85.10;;;;;;5010688;28;20046;-77
2021/09/26 05:16:32;;;;;;;26.40;23.38;;;16.40;85.00;;;;;;5009954;28;20035;-75
2021/09/26 05:18:58;;;;;;;28.48;23.73;;;16.30;85.00;;;;;;5011120;28;20038;-76
2021/09/26 05:21:24;;;;;;;26.38;22.88;;;16.30;85.00;;;;;;5005977;28;20050;-77
2021/09/26 05:23:50;;;;;;;27.98;24.52;;;16.30;85.10;;;;;;5013931;28;20042;-74
2021/09/26 05:26:17;;;;;;;27.92;24.70;;;16.30;85.20;;;;;;5008620;28;20118;-75
2021/09/26 05:28:43;;;;;;;29.23;25.92;;;16.20;85.30;;;;;;5009636;28;20058;-75
2021/09/26 05:31:09;;;;;;;27.30;23.35;;;16.10;85.40;;;;;;5007220;28;20030;-77
2021/09/26 05:33:35;;;;;;;30.65;25.92;;;16.10;85.50;;;;;;5006953;28;20049;-75
2021/09/26 05:36:00;;;;;;;28.33;24.80;;;16.10;85.50;;;;;;5007622;28;20057;-75
2021/09/26 05:38:26;;;;;;;31.75;25.95;;;16.10;85.50;;;;;;5008709;28;20085;-75
2021/09/26 05:40:52;;;;;;;32.33;27.52;;;16.10;85.50;;;;;;5008423;28;20029;-75
2021/09/26 05:43:17;;;;;;;30.48;27.17;;;16.10;85.70;;;;;;5001373;28;20026;-76
2021/09/26 05:45:43;;;;;;;33.05;26.50;;;16.10;85.80;;;;;;5009095;28;20030;-75
2021/09/26 05:48:09;;;;;;;31.52;27.92;;;16.10;85.90;;;;;;5008361;28;20073;-76
2021/09/26 05:50:35;;;;;;;33.20;26.23;;;16.10;85.90;;;;;;5009795;28;20030;-76
2021/09/26 05:53:01;;;;;;;30.52;25.80;;;16.10;86.00;;;;;;5002367;28;20026;-76
2021/09/26 05:55:27;;;;;;;30.55;25.92;;;16.10;86.00;;;;;;4999942;28;20057;-78
2021/09/26 05:57:52;;;;;;;30.52;25.52;;;16.10;86.00;;;;;;5008545;28;20049;-77
2021/09/26 06:00:23;;;;;;;28.05;25.00;;;16.20;86.00;;;;;;5007107;28;20034;-75
2021/09/26 06:02:49;;;;;;;27.73;24.58;;;16.20;86.00;;;;;;5005927;28;20019;-75
2021/09/26 06:05:15;;;;;;;32.10;26.63;;;16.20;86.10;;;;;;5006640;28;20041;-77
2021/09/26 06:07:41;;;;;;;32.13;26.05;;;16.30;86.10;;;;;;5006208;28;20061;-77
2021/09/26 06:10:07;;;;;;;30.08;26.27;;;16.40;86.00;;;;;;5002862;28;20035;-75
2021/09/26 06:12:33;;;;;;;33.00;27.92;;;16.50;86.10;;;;;;5004836;28;20038;-74
2021/09/26 06:14:58;;;;;;;31.65;26.50;;;16.50;86.00;;;;;;5002277;28;20042;-76
2021/09/26 06:17:24;;;;;;;32.95;27.63;;;16.60;86.00;;;;;;5004565;28;20115;-76
2021/09/26 06:19:52;;;;;;;29.35;25.88;;;16.70;85.90;;;;;;5006292;28;20022;-75
2021/09/26 06:22:19;;;;;;;32.40;28.88;;;16.80;85.80;;;;;;5006165;28;20034;-77
2021/09/26 06:24:45;;;;;;;33.15;27.77;;;16.80;85.60;;;;;;5007609;28;20019;-75
2021/09/26 06:27:12;;;;;;;31.73;27.63;;;16.90;85.70;;;;;;4954291;28;1163484;-79
2021/09/26 06:29:38;;;;;;;30.55;27.25;;;16.90;85.70;;;;;;5007116;28;20303;-78
2021/09/26 06:32:04;;;;;;;33.85;28.25;;;16.90;85.70;;;;;;5005951;28;20031;-77
2021/09/26 06:34:30;;;;;;;30.85;26.83;;;17.00;85.60;;;;;;5004579;28;20396;-76
2021/09/26 06:36:57;;;;;;;29.75;26.50;;;17.10;85.60;;;;;;5007140;28;20029;-76
2021/09/26 06:39:23;;;;;;;34.80;26.42;;;17.10;85.50;;;;;;5001394;28;20042;-78
2021/09/26 06:41:48;;;;;;;32.00;26.95;;;17.10;85.40;;;;;;5001653;28;20057;-73
2021/09/26 06:44:14;;;;;;;30.75;26.90;;;17.20;85.40;;;;;;5004421;28;20014;-75
2021/09/26 06:46:40;;;;;;;30.05;25.25;;;17.20;85.30;;;;;;5009702;28;20042;-77
2021/09/26 06:49:06;;;;;;;32.10;27.20;;;17.20;85.30;;;;;;5007395;28;20053;-75
2021/09/26 06:51:32;;;;;;;32.10;27.20;;;17.30;85.20;;;;;;5004292;28;20070;-77
2021/09/26 06:53:58;;;;;;;31.60;25.40;;;17.50;85.00;;;;;;5007624;28;20046;-76
2021/09/26 06:56:24;;;;;;;34.40;26.52;;;17.50;84.80;;;;;;5007720;28;20109;-77
2021/09/26 06:58:50;;;;;;;32.33;27.02;;;17.50;84.70;;;;;;5010992;28;20093;-73
2021/09/26 07:01:15;;;;;;;30.95;25.08;;;17.60;84.50;;;;;;5010014;28;20245;-74
2021/09/26 07:03:41;;;;;;;30.30;24.92;;;17.70;84.30;;;;;;5010689;28;20042;-73
2021/09/26 07:06:07;;;;;;;29.40;24.45;;;17.70;84.20;;;;;;5007868;28;20038;-74
2021/09/26 07:08:32;;;;;;;28.70;23.83;;;17.80;84.10;;;;;;5007029;28;20034;-73
2021/09/26 07:10:59;;;;;;;28.15;23.75;;;17.80;83.90;;;;;;5001658;28;20031;-74
2021/09/26 07:13:24;;;;;;;27.65;22.45;;;17.90;83.90;;;;;;5004933;28;20025;-73
2021/09/26 07:15:50;;;;;;;26.02;23.23;;;18.00;83.60;;;;;;5004842;28;20039;-74
2021/09/26 07:18:16;;;;;;;24.88;21.30;;;18.10;83.40;;;;;;5009245;28;20082;-74
2021/09/26 07:20:42;;;;;;;26.33;21.52;;;18.20;83.40;;;;;;5005278;28;20027;-75
2021/09/26 07:23:07;;;;;;;24.38;21.88;;;18.30;83.20;;;;;;5001751;28;20046;-72
2021/09/26 07:25:33;;;;;;;23.38;20.85;;;18.50;82.70;;;;;;5003705;28;20050;-75
2021/09/26 07:27:59;;;;;;;23.42;20.92;;;18.50;82.30;;;;;;5003823;28;20065;-75
2021/09/26 07:30:25;;;;;;;25.02;21.70;;;18.60;82.20;;;;;;5004135;28;20034;-72
2021/09/26 07:32:51;;;;;;;24.13;20.67;;;18.60;82.20;;;;;;5003879;28;20061;-74
2021/09/26 07:35:17;;;;;;;23.83;21.23;;;18.60;82.30;;;;;;5007329;28;20086;-74
2021/09/26 07:37:43;;;;;;;25.40;20.92;;;18.60;82.30;;;;;;5010914;28;20082;-73
2021/09/26 07:40:09;;;;;;;25.48;20.65;;;18.60;82.30;;;;;;5007897;28;20035;-72
2021/09/26 07:42:35;;;;;;;25.77;22.48;;;18.60;82.40;;;;;;5010283;28;20049;-74
2021/09/26 07:45:03;;;;;;;24.25;20.40;;;18.60;82.40;;;;;;5007252;28;20072;-72
2021/09/26 07:47:33;;;;;;;25.98;21.73;;;18.70;82.20;;;;;;5001448;28;20074;-74
2021/09/26 07:50:00;;;;;;;24.33;21.63;;;18.70;82.10;;;;;;5003516;28;20044;-74
2021/09/26 07:52:27;;;;;;;26.95;21.60;;;18.80;81.90;;;;;;5008538;28;20109;-74
2021/09/26 07:54:53;;;;;;;24.98;20.52;;;18.80;81.80;;;;;;5003456;28;20034;-74
2021/09/26 07:57:21;;;;;;;24.30;21.05;;;18.90;81.60;;;;;;5009168;28;20022;-75
2021/09/26 07:59:47;;;;;;;24.88;22.00;;;19.00;82.10;;;;;;5003803;28;20038;-72
2021/09/26 08:02:13;;;;;;;24.20;21.10;;;19.10;82.10;;;;;;5007186;28;20087;-75
2021/09/26 08:04:39;;;;;;;25.10;21.52;;;19.20;81.00;;;;;;5003063;28;20387;-73
2021/09/26 08:07:05;;;;;;;23.92;20.63;;;19.30;81.00;;;;;;5006682;28;20085;-74
2021/09/26 08:09:31;;;;;;;25.65;21.73;;;19.50;80.10;;;;;;5003740;28;20022;-73
2021/09/26 08:11:57;;;;;;;25.25;21.27;;;19.70;79.50;;;;;;5003244;28;20069;-73
2021/09/26 08:14:22;;;;;;;24.00;21.10;;;19.90;79.30;;;;;;4999561;28;20131;-74
2021/09/26 08:16:48;;;;;;;23.30;20.02;;;20.00;78.60;;;;;;5006554;28;20050;-74
2021/09/26 08:19:14;;;;;;;23.70;21.17;;;20.10;78.70;;;;;;5003407;28;20030;-73
2021/09/26 08:21:39;;;;;;;24.48;21.35;;;20.10;78.30;;;;;;5006228;28;20102;-74
2021/09/26 08:24:07;;;;;;;26.25;22.48;;;20.30;77.80;;;;;;5009472;28;20054;-68
2021/09/26 08:26:36;;;;;;;23.95;21.48;;;20.50;77.40;;;;;;5005435;28;20054;-75
2021/09/26 08:29:03;;;;;;;22.52;19.95;;;20.60;77.40;;;;;;5004381;28;20039;-71
2021/09/26 08:31:28;;;;;;;25.52;21.05;;;20.80;76.90;;;;;;5006856;28;20015;-72
2021/09/26 08:33:54;;;;;;;24.10;21.52;;;20.90;75.90;;;;;;5002284;28;20497;-73
2021/09/26 08:36:20;;;;;;;24.83;21.27;;;20.80;76.20;;;;;;5007495;28;20129;-75
2021/09/26 08:38:46;;;;;;;24.63;21.92;;;20.80;76.00;;;;;;5005250;28;20102;-73
2021/09/26 08:41:12;;;;;;;22.58;20.05;;;21.00;75.50;;;;;;5005186;28;20047;-74
2021/09/26 08:43:39;;;;;;;25.30;21.35;;;21.10;75.20;;;;;;5008519;28;20022;-74
2021/09/26 08:46:06;;;;;;;22.02;19.55;;;21.30;75.00;;;;;;5004170;28;20103;-73
2021/09/26 08:48:32;;;;;;;24.83;21.98;;;21.50;74.30;;;;;;5007218;28;20031;-71
2021/09/26 08:50:58;;;;;;;23.40;20.65;;;21.60;73.50;;;;;;5004464;28;20046;-74
2021/09/26 08:53:27;;;;;;;24.02;20.33;;;21.70;73.10;;;;;;5006985;28;20034;-75
2021/09/26 08:55:56;;;;;;;23.48;20.25;;;21.90;72.70;;;;;;5008423;28;20038;-74
2021/09/26 08:58:22;;;;;;;21.55;19.25;;;22.00;72.10;;;;;;5005101;28;20046;-73
2021/09/26 09:00:49;;;;;;;21.95;19.58;;;22.00;72.50;;;;;;5007259;28;20046;-71
2021/09/26 09:03:15;;;;;;;20.85;18.65;;;22.00;72.10;;;;;;5006982;28;20045;-74
2021/09/26 09:05:42;;;;;;;22.92;19.98;;;22.10;71.80;;;;;;5008910;28;20069;-73
2021/09/26 09:08:16;;;;;;;24.52;20.40;;;22.40;71.70;;;;;;5007173;28;20090;-75
2021/09/26 09:10:42;;;;;;;;;;;22.30;71.10;;;;;;5007132;28;20062;-74
2021/09/26 09:13:10;;;;;;;22.40;18.55;;;22.40;71.90;;;;;;5006571;28;19913;-74
2021/09/26 09:15:36;;;;;;;19.60;17.00;;;22.50;70.50;;;;;;5001142;28;20058;-72
2021/09/26 09:18:03;;;;;;;21.55;17.02;;;22.60;70.40;;;;;;5006380;28;20038;-70
2021/09/26 09:20:31;;;;;;;20.75;17.55;;;22.60;69.80;;;;;;5007653;28;20050;-75
2021/09/26 09:23:19;;;;;;;20.30;18.20;;;22.70;69.50;;;;;;5010804;28;20045;-74
2021/09/26 09:25:53;;;;;;;20.17;17.70;;;22.70;70.20;;;;;;5006339;28;20235;-73
2021/09/26 09:28:24;;;;;;;21.35;19.05;;;22.80;70.30;;;;;;5010776;28;20025;-74
2021/09/26 09:30:53;;;;;;;24.25;21.77;;;22.80;69.70;;;;;;5007979;28;20014;-72
2021/09/26 09:33:21;;;;;;;26.58;22.75;;;22.60;69.30;;;;;;5011620;28;20031;-74
2021/09/26 09:35:52;;;;;;;23.45;21.02;;;22.40;70.00;;;;;;5020171;28;20045;-72
2021/09/26 09:38:33;;;;;;;22.20;20.00;;;22.60;70.30;;;;;;5006125;28;20014;-71
2021/09/26 09:40:59;;;;;;;22.33;20.02;;;22.60;69.90;;;;;;5006873;28;20102;-71
2021/09/26 09:43:27;;;;;;;22.75;19.20;;;22.50;70.10;;;;;;5006414;28;20030;-71
2021/09/26 09:46:01;;;;;;;21.55;18.90;;;22.60;70.00;;;;;;5011579;28;20030;-72
2021/09/26 09:48:31;;;;;;;21.40;18.77;;;22.60;68.40;;;;;;5018045;28;20039;-71
2021/09/26 09:50:59;;;;;;;20.88;18.27;;;22.50;67.50;;;;;;5017036;28;21041;-72
2021/09/26 09:53:28;;;;;;;21.60;17.10;;;22.40;67.70;;;;;;5012018;28;20022;-73
2021/09/26 09:56:06;;;;;;;21.33;18.10;;;22.50;67.90;;;;;;5014328;28;20062;-73
2021/09/26 09:58:37;;;;;;;18.92;16.92;;;22.60;67.30;;;;;;5010872;28;20062;-75
2021/09/26 10:01:05;;;;;;;19.27;16.70;;;22.70;66.30;;;;;;5005515;28;20026;-70
2021/09/26 10:03:58;;;;;;;18.13;16.23;;;22.80;65.80;;;;;;5007115;28;20034;-74
2021/09/26 10:06:38;;;;;;;19.70;16.67;;;22.80;65.60;;;;;;5007996;28;20014;-73
2021/09/26 10:09:13;;;;;;;19.02;16.35;;;22.70;66.00;;;;;;5009445;28;20038;-73
2021/09/26 10:11:55;;;;;;;18.38;16.27;;;22.70;65.40;;;;;;5016444;28;20065;-72
2021/09/26 10:14:35;;;;;;;18.70;15.90;;;22.80;64.70;;;;;;5011182;28;20097;-73
2021/09/26 10:17:03;;;;;;;18.52;15.38;;;22.80;65.00;;;;;;5012187;28;20046;-72
2021/09/26 10:19:30;;;;;;;17.52;14.50;;;22.90;65.50;;;;;;5008849;28;20084;-72
2021/09/26 10:21:59;;;;;;;17.02;13.95;;;22.80;64.60;;;;;;5007644;28;20054;-73
2021/09/26 10:24:31;;;;;;;17.20;13.75;;;22.90;64.60;;;;;;5007257;28;20018;-73
2021/09/26 10:27:01;;;;;;;18.35;13.95;;;23.00;64.60;;;;;;5012580;28;20050;-73
2021/09/26 10:29:33;;;;;;;16.73;14.02;;;23.00;64.90;;;;;;5007704;28;20034;-75
2021/09/26 10:32:01;;;;;;;17.50;14.20;;;23.10;64.90;;;;;;5004928;28;20037;-73
2021/09/26 10:34:27;;;;;;;17.67;14.45;;;23.30;64.70;;;;;;5004942;28;20053;-75
2021/09/26 10:36:53;;;;;;;16.23;13.30;;;23.20;65.00;;;;;;5011732;28;20054;-73
2021/09/26 10:39:19;;;;;;;16.88;14.00;;;23.30;64.70;;;;;;5008262;28;20026;-74
2021/09/26 10:42:05;;;;;;;17.40;13.07;;;23.30;65.30;;;;;;5005282;28;20133;-74
2021/09/26 10:44:32;;;;;;;16.13;13.35;;;23.40;65.10;;;;;;5008985;28;20049;-73
2021/09/26 10:47:21;;;;;;;16.58;13.25;;;23.50;65.20;;;;;;5011230;28;20032;-76
2021/09/26 10:49:49;;;;;;;15.50;13.05;;;23.50;65.00;;;;;;5008787;28;20022;-73
2021/09/26 10:52:26;;;;;;;14.82;11.27;;;23.60;65.00;;;;;;5008566;28;20010;-74
2021/09/26 10:54:52;;;;;;;13.85;11.43;;;23.50;65.00;;;;;;5009586;28;20030;-72
2021/09/26 10:57:26;;;;;;;16.13;10.88;;;23.30;65.40;;;;;;5005332;28;20076;-74
2021/09/26 10:59:53;;;;;;;;;;;23.30;66.10;;;;;;5010926;28;20014;-74
2021/09/26 11:02:22;;;;;;;15.55;12.15;;;23.30;66.20;;;;;;5009088;28;19921;-73
2021/09/26 11:04:53;;;;;;;14.07;11.10;;;23.30;66.10;;;;;;5010176;28;20045;-72
2021/09/26 11:07:21;;;;;;;15.73;12.20;;;23.30;66.40;;;;;;5009339;28;20034;-73
2021/09/26 11:09:57;;;;;;;14.25;11.43;;;23.30;66.60;;;;;;5012371;28;20022;-73
2021/09/26 11:12:49;;;;;;;16.23;12.18;;;23.40;66.70;;;;;;5010839;28;20045;-74
2021/09/26 11:15:22;;;;;;;16.75;11.35;;;23.50;65.90;;;;;;5009791;28;20026;-74
2021/09/26 11:17:50;;;;;;;13.90;11.52;;;23.40;65.90;;;;;;5010480;28;20026;-72
2021/09/26 11:20:25;;;;;;;17.80;11.60;;;23.50;66.20;;;;;;5010740;28;20031;-73
2021/09/26 11:23:06;;;;;;;13.75;10.98;;;23.50;66.10;;;;;;5011769;28;20015;-73
2021/09/26 11:25:57;;;;;;;16.00;10.90;;;23.60;65.50;;;;;;5006250;28;20142;-72
2021/09/26 11:28:39;;;;;;;14.02;10.13;;;23.60;66.00;;;;;;5004235;28;20027;-74
2021/09/26 11:31:10;;;;;;;13.43;9.50;;;23.60;65.50;;;;;;5007683;28;20022;-73
2021/09/26 11:33:56;;;;;;;12.93;9.65;;;23.60;65.80;;;;;;5005374;28;20025;-73
2021/09/26 11:36:24;;;;;;;13.63;9.68;;;23.50;65.90;;;;;;5008013;28;20039;-74
2021/09/26 11:38:50;;;;;;;12.43;9.85;;;23.50;65.80;;;;;;5004271;28;20060;-73
2021/09/26 11:41:16;;;;;;;14.70;10.20;;;23.50;66.00;;;;;;5005133;28;20031;-73
2021/09/26 11:44:03;;;;;;;14.50;9.00;;;23.60;65.70;;;;;;5010269;28;20076;-75
2021/09/26 11:46:29;;;;;;;12.55;8.93;;;23.60;65.70;;;;;;5005457;28;20070;-73
2021/09/26 11:49:04;;;;;;;15.15;10.65;;;23.50;66.00;;;;;;5015341;28;20038;-75
2021/09/26 11:51:30;;;;;;;12.63;10.20;;;23.50;66.30;;;;;;5007578;28;20042;-77
2021/09/26 11:53:56;;;;;;;12.75;10.07;;;23.50;66.20;;;;;;5005119;28;20026;-74
2021/09/26 11:56:37;;;;;;;12.93;9.73;;;23.50;66.00;;;;;;5003720;28;20114;-75
2021/09/26 11:59:06;;;;;;;13.10;9.45;;;23.50;66.00;;;;;;5013141;28;20019;-72
2021/09/26 12:01:35;;;;;;;12.07;8.75;;;23.60;66.30;;;;;;5009599;28;21343;-77
2021/09/26 12:04:13;;;;;;;13.73;9.50;;;23.70;65.80;;;;;;5011750;28;20030;-73
2021/09/26 12:06:43;;;;;;;13.18;8.63;;;23.70;65.10;;;;;;5012183;28;20057;-75
2021/09/26 12:09:09;;;;;;;12.23;9.70;;;24.10;64.80;;;;;;5006262;28;20022;-75
2021/09/26 12:11:49;;;;;;;14.10;9.38;;;24.40;63.70;;;;;;5006656;28;20034;-76
2021/09/26 12:14:29;;;;;;;11.98;8.45;;;24.70;63.10;;;;;;5004648;28;20212;-76
2021/09/26 12:16:56;;;;;;;10.32;8.35;;;24.90;62.60;;;;;;5001169;28;20027;-75
2021/09/26 12:19:22;;;;;;;11.93;8.75;;;25.10;61.30;;;;;;5001115;28;20085;-77
2021/09/26 12:21:57;;;;;;;12.45;8.15;;;25.10;61.40;;;;;;5012336;28;20015;-74
2021/09/26 12:24:31;;;;;;;12.98;8.25;;;25.00;61.70;;;;;;5006290;28;20042;-77
2021/09/26 12:26:56;;;;;;;12.02;8.98;;;25.00;61.40;;;;;;5004230;28;20122;-74
2021/09/26 12:29:26;;;;;;;11.15;8.15;;;24.80;61.60;;;;;;5004028;28;20031;-74
2021/09/26 12:31:56;;;;;;;10.55;7.40;;;24.80;61.90;;;;;;5005974;28;20018;-74
2021/09/26 12:34:29;;;;;;;12.20;8.48;;;24.90;62.00;;;;;;5006763;28;20079;-73
2021/09/26 12:36:55;;;;;;;12.73;7.88;;;24.70;62.00;;;;;;5004167;28;20054;-74